Orsola Bottiglieri — ICQN — position and weather

sailwx.info

Track history (hours):
 
Tides and Currents Weather Stations Pressure Air Temp Water Temp Dewpoint Dewpoint Depression Visibility Wind Speed Wind Dir Waves Ship Positions

Orsola Bottiglieri

Last reported at 2015-Apr-10 06:28 UTC. Time now 2015-May-03 19:55 UTC.
Position N 53°17' W 014°27'.
Warning: this ship's position is 23 days out of date.

Length 292 m; draft 10.4 m.

Type: Cargo ship. MMSI: 247304400.

Date/timePositionNaut miles runAvg speedWind from/ knotsBaromVisibWave heightAir tempDewpointWater temp
2015-Apr-10 06:28N 53°17' W 014°27'6611.1
2015-Apr-10 00:33N 53°53' W 012°54'6210.1
2015-Apr-09 18:27N 54°26' W 011°25'9 9.5
2015-Apr-09 17:33N 54°31' W 011°13'9 9.4
2015-Apr-09 16:33N 54°36' W 010°59'10 9.3
2015-Apr-09 15:28N 54°41' W 010°45'10 9.1
2015-Apr-09 14:20N 54°47' W 010°30'8 8.7
2015-Apr-09 13:28N 54°51' W 010°19'8 8.7
2015-Apr-09 12:33N 54°55' W 010°07'104 9.3
2015-Apr-09 01:25N 55°32' W 007°17'8 9.7
2015-Apr-09 00:33N 55°30' W 007°02'9 8.7
2015-Apr-08 23:33N 55°29' W 006°47'8 8.4
2015-Apr-08 22:33N 55°28' W 006°32'9 8.8
2015-Apr-08 21:33N 55°26' W 006°17'9 9.3
2015-Apr-08 20:33N 55°24' W 006°01'1010.5
2015-Apr-08 19:33N 55°16' W 005°49'1211.8
2015-Apr-08 18:33N 55°16' W 005°28'1211.8
2015-Apr-08 17:33N 55°22' W 005°10'13 9.8
2015-Apr-08 16:12N 55°32' W 004°56'  
2015-Apr-06 11:33N 55°45' W 004°53'0 0.0
2015-Apr-06 10:33N 55°45' W 004°53'0 0.0
2015-Apr-06 09:33N 55°45' W 004°53'0 0.0
2015-Apr-06 08:33N 55°45' W 004°53'0 0.0
2015-Apr-06 07:33N 55°45' W 004°53'0 0.0
2015-Apr-06 06:33N 55°45' W 004°53'0 0.0
2015-Apr-06 05:33N 55°45' W 004°53'0 0.0
2015-Apr-05 22:24N 55°45' W 004°53'0 0.0
2015-Apr-05 21:33N 55°45' W 004°53'0 0.0
2015-Apr-05 20:33N 55°45' W 004°53'0 0.0
2015-Apr-05 19:33N 55°45' W 004°53'0 0.0
2015-Apr-05 18:33N 55°45' W 004°53'0 0.0
2015-Apr-05 17:33N 55°45' W 004°53'0 0.0
2015-Apr-05 16:33N 55°45' W 004°53'0 0.0
2015-Apr-05 15:33N 55°45' W 004°53'0 0.0
2015-Apr-05 14:33N 55°45' W 004°53'0 0.0
2015-Apr-05 13:33N 55°45' W 004°53'0 0.0
2015-Apr-05 12:33N 55°45' W 004°53'0 0.0
2015-Apr-05 11:33N 55°45' W 004°53'0 0.0
2015-Apr-05 10:33N 55°45' W 004°53'0 0.0
2015-Apr-05 09:33N 55°45' W 004°53'0 0.0
2015-Apr-05 08:33N 55°45' W 004°53'0 0.0
2015-Apr-05 07:33N 55°45' W 004°53'0 0.0
2015-Apr-04 21:33N 55°45' W 004°53'0 0.0
2015-Apr-04 20:33N 55°45' W 004°53'0 0.0
2015-Apr-04 19:33N 55°45' W 004°53'0 0.0
2015-Apr-04 18:33N 55°45' W 004°53'0 0.0
2015-Apr-04 17:33N 55°45' W 004°53'0 0.0
2015-Apr-04 16:33N 55°45' W 004°53'0 0.0
2015-Apr-04 15:30N 55°45' W 004°53'0 0.0
2015-Apr-04 14:33N 55°45' W 004°53'0 0.0
2015-Apr-04 13:33N 55°45' W 004°53'0 0.0
2015-Apr-04 12:33N 55°45' W 004°53'0 0.0
2015-Apr-04 11:33N 55°45' W 004°53'0 0.0
2015-Apr-04 10:33N 55°45' W 004°53'0 0.0
2015-Apr-04 09:33N 55°45' W 004°53'0 0.0
2015-Apr-04 08:33N 55°45' W 004°53'0 0.0
2015-Apr-03 22:15N 55°45' W 004°53'0 0.0
2015-Apr-03 21:33N 55°45' W 004°53'0 0.0
2015-Apr-03 20:33N 55°45' W 004°53'0 0.0
2015-Apr-03 19:33N 55°45' W 004°53'0 0.0
2015-Apr-03 18:33N 55°45' W 004°53'0 0.0
2015-Apr-03 17:33N 55°45' W 004°53'0 0.0
2015-Apr-03 16:33N 55°45' W 004°53'0 0.0
2015-Apr-03 15:33N 55°45' W 004°53'0 0.0
2015-Apr-03 14:30N 55°45' W 004°53'0 0.0
2015-Apr-03 13:33N 55°45' W 004°53'0 0.0
2015-Apr-03 12:33N 55°45' W 004°53'0 0.0
2015-Apr-03 11:33N 55°45' W 004°53'0 0.0
2015-Apr-03 10:33N 55°45' W 004°53'0 0.0
2015-Apr-03 09:33N 55°45' W 004°53'0 0.0
2015-Apr-03 03:33N 55°45' W 004°53'5 0.7
2015-Apr-02 20:33N 55°42' W 004°58'  
Track history (hours):
 
Tides and Currents Weather Stations Pressure Air Temp Water Temp Dewpoint Dewpoint Depression Visibility Wind Speed Wind Dir Waves Ship Positions

Orsola Bottiglieri

Last reported at 2015-Apr-10 06:28 UTC. Time now 2015-May-03 19:55 UTC.
Position N 53°17' W 014°27'.
Warning: this ship's position is 23 days out of date.

Length 292 m; draft 10.4 m.

Type: Cargo ship. MMSI: 247304400.

Date/timePositionNaut miles runAvg speedWind from/ knotsBaromVisibWave heightAir tempDewpointWater temp
2015-Apr-10 06:28N 53°17' W 014°27'6611.1
2015-Apr-10 00:33N 53°53' W 012°54'6210.1
2015-Apr-09 18:27N 54°26' W 011°25'9 9.5
2015-Apr-09 17:33N 54°31' W 011°13'9 9.4
2015-Apr-09 16:33N 54°36' W 010°59'10 9.3
2015-Apr-09 15:28N 54°41' W 010°45'10 9.1
2015-Apr-09 14:20N 54°47' W 010°30'8 8.7
2015-Apr-09 13:28N 54°51' W 010°19'8 8.7
2015-Apr-09 12:33N 54°55' W 010°07'104 9.3
2015-Apr-09 01:25N 55°32' W 007°17'8 9.7
2015-Apr-09 00:33N 55°30' W 007°02'9 8.7
2015-Apr-08 23:33N 55°29' W 006°47'8 8.4
2015-Apr-08 22:33N 55°28' W 006°32'9 8.8
2015-Apr-08 21:33N 55°26' W 006°17'9 9.3
2015-Apr-08 20:33N 55°24' W 006°01'1010.5
2015-Apr-08 19:33N 55°16' W 005°49'1211.8
2015-Apr-08 18:33N 55°16' W 005°28'1211.8
2015-Apr-08 17:33N 55°22' W 005°10'13 9.8
2015-Apr-08 16:12N 55°32' W 004°56'  
2015-Apr-06 11:33N 55°45' W 004°53'0 0.0
2015-Apr-06 10:33N 55°45' W 004°53'0 0.0
2015-Apr-06 09:33N 55°45' W 004°53'0 0.0
2015-Apr-06 08:33N 55°45' W 004°53'0 0.0
2015-Apr-06 07:33N 55°45' W 004°53'0 0.0
2015-Apr-06 06:33N 55°45' W 004°53'0 0.0
2015-Apr-06 05:33N 55°45' W 004°53'0 0.0
2015-Apr-05 22:24N 55°45' W 004°53'0 0.0
2015-Apr-05 21:33N 55°45' W 004°53'0 0.0
2015-Apr-05 20:33N 55°45' W 004°53'0 0.0
2015-Apr-05 19:33N 55°45' W 004°53'0 0.0
2015-Apr-05 18:33N 55°45' W 004°53'0 0.0
2015-Apr-05 17:33N 55°45' W 004°53'0 0.0
2015-Apr-05 16:33N 55°45' W 004°53'0 0.0
2015-Apr-05 15:33N 55°45' W 004°53'0 0.0
2015-Apr-05 14:33N 55°45' W 004°53'0 0.0
2015-Apr-05 13:33N 55°45' W 004°53'0 0.0
2015-Apr-05 12:33N 55°45' W 004°53'0 0.0
2015-Apr-05 11:33N 55°45' W 004°53'0 0.0
2015-Apr-05 10:33N 55°45' W 004°53'0 0.0
2015-Apr-05 09:33N 55°45' W 004°53'0 0.0
2015-Apr-05 08:33N 55°45' W 004°53'0 0.0
2015-Apr-05 07:33N 55°45' W 004°53'0 0.0
2015-Apr-04 21:33N 55°45' W 004°53'0 0.0
2015-Apr-04 20:33N 55°45' W 004°53'0 0.0
2015-Apr-04 19:33N 55°45' W 004°53'0 0.0
2015-Apr-04 18:33N 55°45' W 004°53'0 0.0
2015-Apr-04 17:33N 55°45' W 004°53'0 0.0
2015-Apr-04 16:33N 55°45' W 004°53'0 0.0
2015-Apr-04 15:30N 55°45' W 004°53'0 0.0
2015-Apr-04 14:33N 55°45' W 004°53'0 0.0
2015-Apr-04 13:33N 55°45' W 004°53'0 0.0
2015-Apr-04 12:33N 55°45' W 004°53'0 0.0
2015-Apr-04 11:33N 55°45' W 004°53'0 0.0
2015-Apr-04 10:33N 55°45' W 004°53'0 0.0
2015-Apr-04 09:33N 55°45' W 004°53'0 0.0
2015-Apr-04 08:33N 55°45' W 004°53'0 0.0
2015-Apr-03 22:15N 55°45' W 004°53'0 0.0
2015-Apr-03 21:33N 55°45' W 004°53'0 0.0
2015-Apr-03 20:33N 55°45' W 004°53'0 0.0
2015-Apr-03 19:33N 55°45' W 004°53'0 0.0
2015-Apr-03 18:33N 55°45' W 004°53'0 0.0
2015-Apr-03 17:33N 55°45' W 004°53'0 0.0
2015-Apr-03 16:33N 55°45' W 004°53'0 0.0
2015-Apr-03 15:33N 55°45' W 004°53'0 0.0
2015-Apr-03 14:30N 55°45' W 004°53'0 0.0
2015-Apr-03 13:33N 55°45' W 004°53'0 0.0
2015-Apr-03 12:33N 55°45' W 004°53'0 0.0
2015-Apr-03 11:33N 55°45' W 004°53'0 0.0
2015-Apr-03 10:33N 55°45' W 004°53'0 0.0
2015-Apr-03 09:33N 55°45' W 004°53'0 0.0
2015-Apr-03 03:33N 55°45' W 004°53'5 0.7
2015-Apr-02 20:33N 55°42' W 004°58'  

Dump ship's entire track history